Aviation Digital Data Service (ADDS)

Output produced by METARs form (2136 UTC 24 March 2019)
found at http://www.aviationweather.gov/metar/data/
 
MYGF 241530Z 2418/2518 08020KT 9999 SCT020 SCT250 
     BECMG 2502/2504 09012KT
       
MYNN 241530Z 2418/2518 10016KT 9999 FEW020 SCT100 BKN240 
     PROB30 
     TEMPO 2503/2510 09010G20KT 8000 SHRA SCT018 SCT045